createdAt,value
2023-04-15T00:01:19.808Z,100958.50
2023-04-15T00:03:48.185Z,100964.25
2023-04-15T00:06:15.984Z,100955.81
2023-04-15T00:08:43.963Z,100958.81
2023-04-15T00:11:11.532Z,100960.91
2023-04-15T00:13:39.936Z,100961.53
2023-04-15T00:16:11.894Z,100956.94
2023-04-15T00:18:39.398Z,100964.25
2023-04-15T00:21:07.022Z,100962.28
2023-04-15T00:23:34.600Z,100961.44
2023-04-15T00:26:02.133Z,100953.66
2023-04-15T00:28:29.807Z,100960.72
2023-04-15T00:30:57.997Z,100966.28
2023-04-15T00:33:25.694Z,100964.47
2023-04-15T00:35:54.105Z,100962.88
2023-04-15T00:38:21.321Z,100962.97
2023-04-15T00:40:48.908Z,100955.69
2023-04-15T00:43:17.883Z,100964.81
2023-04-15T00:45:45.375Z,100968.94
2023-04-15T00:48:13.173Z,100972.66
2023-04-15T00:50:41.670Z,100965.06
2023-04-15T00:53:09.045Z,100967.56
2023-04-15T00:55:36.586Z,100971.59
2023-04-15T00:58:04.122Z,100973.38
2023-04-15T01:00:31.802Z,100971.06
2023-04-15T01:02:59.347Z,100972.56
2023-04-15T01:05:27.358Z,100977.41
2023-04-15T01:07:55.763Z,100968.44
2023-04-15T01:10:22.755Z,100964.63
2023-04-15T01:12:50.451Z,100975.75
2023-04-15T01:15:17.563Z,100964.31
2023-04-15T01:17:45.429Z,100969.31
2023-04-15T01:20:12.921Z,100965.00
2023-04-15T01:22:41.401Z,100973.72
2023-04-15T01:25:13.663Z,100972.22
2023-04-15T01:27:42.796Z,100965.38
2023-04-15T01:30:10.881Z,100973.06
2023-04-15T01:32:38.872Z,100971.78
2023-04-15T01:35:06.685Z,100971.41
2023-04-15T01:37:34.401Z,100971.31
2023-04-15T01:40:01.659Z,100970.03
2023-04-15T01:42:29.238Z,100972.22
2023-04-15T01:44:56.788Z,100967.63
2023-04-15T01:47:24.191Z,100974.31
2023-04-15T01:49:52.045Z,100985.69
2023-04-15T01:52:19.627Z,100982.44
2023-04-15T01:54:47.387Z,100978.75
2023-04-15T01:57:14.657Z,100983.34
2023-04-15T01:59:42.530Z,100989.50
2023-04-15T02:02:09.588Z,100986.38
2023-04-15T02:04:37.216Z,100996.66
2023-04-15T02:07:04.426Z,100978.25
2023-04-15T02:09:32.129Z,100978.25
2023-04-15T02:11:59.866Z,100990.28
2023-04-15T02:14:27.407Z,100996.41
2023-04-15T02:16:55.044Z,100999.78
2023-04-15T02:19:22.468Z,100993.97
2023-04-15T02:21:49.730Z,101007.13
2023-04-15T02:24:18.888Z,101005.03
2023-04-15T02:26:47.008Z,101009.53
2023-04-15T02:29:15.930Z,101007.66
2023-04-15T02:31:44.397Z,101007.47
2023-04-15T02:34:12.021Z,101003.25
2023-04-15T02:36:41.792Z,101016.75
2023-04-15T02:39:09.238Z,101024.66
2023-04-15T02:41:37.155Z,101024.25
2023-04-15T02:44:05.295Z,101019.25
2023-04-15T02:46:32.591Z,101021.09
2023-04-15T02:49:00.573Z,101030.72
2023-04-15T02:51:32.161Z,101036.94
2023-04-15T02:53:59.586Z,101033.41
2023-04-15T02:56:27.712Z,101042.22
2023-04-15T02:58:56.609Z,101037.81
2023-04-15T03:01:24.385Z,101043.75
2023-04-15T03:03:51.997Z,101048.84
2023-04-15T03:06:19.484Z,101040.72
2023-04-15T03:08:47.047Z,101046.19
2023-04-15T03:11:16.511Z,101045.44
2023-04-15T03:13:43.985Z,101049.78
2023-04-15T03:16:22.666Z,101046.41
2023-04-15T03:18:50.504Z,101061.00
2023-04-15T03:21:18.482Z,101063.75
2023-04-15T03:23:46.544Z,101052.56
2023-04-15T03:26:30.673Z,101059.84
2023-04-15T03:29:02.348Z,101053.63
2023-04-15T03:31:30.165Z,101061.63
2023-04-15T03:33:57.585Z,101065.78
2023-04-15T03:36:25.026Z,101069.72
2023-04-15T03:38:53.299Z,101067.03
2023-04-15T03:41:20.873Z,101072.72
2023-04-15T03:43:48.214Z,101080.69
2023-04-15T03:46:16.041Z,101082.69
2023-04-15T03:48:43.585Z,101084.56
2023-04-15T03:51:11.249Z,101092.09
2023-04-15T03:53:38.608Z,101090.84
2023-04-15T03:56:06.309Z,101088.81
2023-04-15T03:58:33.771Z,101096.31
2023-04-15T04:01:01.428Z,101096.00
2023-04-15T04:03:29.026Z,101087.28
2023-04-15T04:05:57.087Z,101101.00
2023-04-15T04:08:24.385Z,101100.28
2023-04-15T04:10:52.002Z,101102.13
2023-04-15T04:13:19.266Z,101104.75
2023-04-15T04:15:46.659Z,101101.50
2023-04-15T04:18:13.952Z,101102.25
2023-04-15T04:20:42.072Z,101109.81
2023-04-15T04:23:09.337Z,101109.19
2023-04-15T04:25:36.946Z,101120.75
2023-04-15T04:28:04.527Z,101114.69
2023-04-15T04:30:32.070Z,101118.22
2023-04-15T04:32:59.569Z,101119.56
2023-04-15T04:35:26.670Z,101123.28
2023-04-15T04:37:54.381Z,101134.81
2023-04-15T04:40:21.683Z,101126.41
2023-04-15T04:42:49.242Z,101130.19
2023-04-15T04:45:16.552Z,101136.09
2023-04-15T04:47:44.301Z,101140.66
2023-04-15T04:50:11.962Z,101149.13
2023-04-15T04:52:39.946Z,101141.16
2023-04-15T04:55:08.899Z,101149.78
2023-04-15T04:57:36.883Z,101149.16
2023-04-15T05:00:05.300Z,101154.88
2023-04-15T05:02:33.316Z,101154.38
2023-04-15T05:05:01.370Z,101164.56
2023-04-15T05:07:28.905Z,101174.00
2023-04-15T05:09:56.971Z,101173.75
2023-04-15T05:12:24.565Z,101178.63
2023-04-15T05:14:51.894Z,101181.00
2023-04-15T05:17:19.394Z,101183.16
2023-04-15T05:19:46.736Z,101194.13
2023-04-15T05:22:14.384Z,101197.78
2023-04-15T05:24:41.712Z,101200.78
2023-04-15T05:27:10.924Z,101206.13
2023-04-15T05:29:38.011Z,101208.53
2023-04-15T05:32:05.849Z,101205.09
2023-04-15T05:34:33.349Z,101209.13
2023-04-15T05:37:01.109Z,101209.34
2023-04-15T05:39:28.333Z,101219.75
2023-04-15T05:41:56.124Z,101220.19
2023-04-15T05:44:23.573Z,101231.41
2023-04-15T05:46:50.885Z,101238.94
2023-04-15T05:49:18.644Z,101241.56
2023-04-15T05:51:46.096Z,101242.31
2023-04-15T05:54:18.630Z,101242.81
2023-04-15T05:56:47.577Z,101241.53
2023-04-15T05:59:14.975Z,101261.75
2023-04-15T06:01:42.415Z,101254.78
2023-04-15T06:04:10.056Z,101256.22
2023-04-15T06:06:38.704Z,101269.13
2023-04-15T06:09:06.536Z,101265.47
2023-04-15T06:11:34.226Z,101276.72
2023-04-15T06:14:01.606Z,101280.09
2023-04-15T06:16:29.306Z,101279.25
2023-04-15T06:18:56.535Z,101294.53
2023-04-15T06:21:23.888Z,101302.88
2023-04-15T06:23:51.308Z,101304.97
2023-04-15T06:26:18.614Z,101321.53
2023-04-15T06:28:46.184Z,101323.19
2023-04-15T06:31:13.514Z,101326.53
2023-04-15T06:33:40.973Z,101325.78
2023-04-15T06:36:08.426Z,101335.81
2023-04-15T06:38:36.284Z,101328.78
2023-04-15T06:41:04.146Z,101337.03
2023-04-15T06:43:31.665Z,101336.31
2023-04-15T06:45:59.013Z,101336.78
2023-04-15T06:48:26.793Z,101338.41
2023-04-15T06:50:54.204Z,101347.88
2023-04-15T06:53:22.546Z,101341.16
2023-04-15T06:55:49.986Z,101345.31
2023-04-15T06:58:17.503Z,101354.41
2023-04-15T07:00:45.347Z,101362.13
2023-04-15T07:03:13.555Z,101355.28
2023-04-15T07:05:41.826Z,101365.66
2023-04-15T07:08:09.291Z,101356.50
2023-04-15T07:10:37.390Z,101367.28
2023-04-15T07:13:06.004Z,101369.06
2023-04-15T07:15:33.372Z,101376.91
2023-04-15T07:18:01.009Z,101370.38
2023-04-15T07:20:28.724Z,101386.00
2023-04-15T07:22:56.204Z,101386.78
2023-04-15T07:25:23.509Z,101395.91
2023-04-15T07:27:51.084Z,101394.66
2023-04-15T07:30:18.224Z,101391.38
2023-04-15T07:32:46.044Z,101403.72
2023-04-15T07:35:13.683Z,101404.16
2023-04-15T07:37:41.871Z,101409.00
2023-04-15T07:40:10.481Z,101414.78
2023-04-15T07:42:39.396Z,101417.09
2023-04-15T07:45:08.591Z,101412.94
2023-04-15T07:47:36.297Z,101414.88
2023-04-15T07:50:03.786Z,101416.44
2023-04-15T07:52:31.250Z,101420.94
2023-04-15T07:54:59.038Z,101424.38
2023-04-15T07:57:26.405Z,101421.09
2023-04-15T07:59:53.738Z,101442.25
2023-04-15T08:02:21.352Z,101441.16
2023-04-15T08:04:49.065Z,101442.72
2023-04-15T08:07:16.667Z,101447.47
2023-04-15T08:09:44.129Z,101459.34
2023-04-15T08:12:13.590Z,101463.09
2023-04-15T08:14:41.049Z,101463.16
2023-04-15T08:17:08.388Z,101471.13
2023-04-15T08:19:36.207Z,101470.34
2023-04-15T08:22:03.407Z,101467.00
2023-04-15T08:24:31.984Z,101479.31
2023-04-15T08:27:00.184Z,101480.16
2023-04-15T08:29:27.767Z,101485.72
2023-04-15T08:31:55.427Z,101489.69
2023-04-15T08:34:38.563Z,101489.09
2023-04-15T08:37:05.464Z,101493.41
2023-04-15T08:39:32.875Z,101503.44
2023-04-15T08:42:04.067Z,101502.78
2023-04-15T08:44:34.911Z,101513.31
2023-04-15T08:47:06.402Z,101521.38
2023-04-15T08:49:36.449Z,101504.03
2023-04-15T08:52:04.777Z,101517.03
2023-04-15T08:54:32.527Z,101524.47
2023-04-15T08:57:00.115Z,101521.44
2023-04-15T08:59:27.363Z,101525.06
2023-04-15T09:01:55.725Z,101534.28
2023-04-15T09:04:23.115Z,101532.13
2023-04-15T09:06:50.722Z,101532.19
2023-04-15T09:09:18.276Z,101541.56
2023-04-15T09:11:45.867Z,101546.66
2023-04-15T09:14:13.733Z,101550.09
2023-04-15T09:17:10.728Z,101559.22
2023-04-15T09:19:38.262Z,101558.88
2023-04-15T09:22:05.814Z,101562.69
2023-04-15T09:24:39.252Z,101562.19
2023-04-15T09:27:07.083Z,101573.47
2023-04-15T09:29:34.692Z,101571.91
2023-04-15T09:32:15.788Z,101570.25
2023-04-15T09:34:43.757Z,101576.28
2023-04-15T09:37:11.439Z,101585.56
2023-04-15T09:39:50.908Z,101582.53
2023-04-15T09:42:24.835Z,101581.69
2023-04-15T09:44:53.524Z,101587.34
2023-04-15T09:47:33.191Z,101597.63
2023-04-15T09:50:02.119Z,101585.16
2023-04-15T09:52:30.382Z,101586.91
2023-04-15T09:54:59.966Z,101599.69
2023-04-15T09:57:35.590Z,101604.09
2023-04-15T10:00:08.996Z,101621.03
2023-04-15T10:02:36.915Z,101627.25
2023-04-15T10:05:04.904Z,101616.81
2023-04-15T10:07:33.108Z,101614.91
2023-04-15T10:10:04.089Z,101617.09
2023-04-15T10:12:33.773Z,101618.03
2023-04-15T10:15:08.152Z,101627.81
2023-04-15T10:17:37.398Z,101619.34
2023-04-15T10:20:06.669Z,101619.88
2023-04-15T10:22:33.951Z,101635.75
2023-04-15T10:25:01.533Z,101625.22
2023-04-15T10:27:29.495Z,101626.41
2023-04-15T10:29:57.318Z,101639.41
2023-04-15T10:32:26.461Z,101624.81
2023-04-15T10:34:54.729Z,101636.91
2023-04-15T10:37:23.559Z,101632.34
2023-04-15T10:39:51.588Z,101640.56
2023-04-15T10:42:20.439Z,101641.41
2023-04-15T10:44:52.204Z,101646.06
2023-04-15T10:47:21.814Z,101653.66
2023-04-15T10:49:59.640Z,101646.13
2023-04-15T10:52:28.964Z,101652.47
2023-04-15T10:55:09.731Z,101651.34
2023-04-15T10:57:41.410Z,101649.91
2023-04-15T11:00:09.533Z,101656.97
2023-04-15T11:02:46.819Z,101666.59
2023-04-15T11:05:19.033Z,101673.38
2023-04-15T11:07:51.817Z,101665.00
2023-04-15T11:10:19.106Z,101667.78
2023-04-15T11:12:46.898Z,101666.47
2023-04-15T11:15:38.305Z,101666.13
2023-04-15T11:18:13.895Z,101676.06
2023-04-15T11:20:45.423Z,101688.75
2023-04-15T11:23:14.764Z,101700.63
2023-04-15T11:25:43.845Z,101686.69
2023-04-15T11:28:12.488Z,101695.41
2023-04-15T11:30:40.550Z,101692.63
2023-04-15T11:33:11.017Z,101696.59
2023-04-15T11:35:38.518Z,101704.41
2023-04-15T11:38:09.001Z,101716.03
2023-04-15T11:40:36.565Z,101710.31
2023-04-15T11:43:09.868Z,101715.56
2023-04-15T11:45:38.075Z,101705.88
2023-04-15T11:48:11.168Z,101717.97
2023-04-15T11:50:40.930Z,101715.94
2023-04-15T11:53:09.900Z,101729.28
2023-04-15T11:55:49.830Z,101721.22
2023-04-15T11:58:17.961Z,101723.72
2023-04-15T12:00:48.959Z,101719.75
2023-04-15T12:03:37.355Z,101719.78
2023-04-15T12:06:07.718Z,101722.19
2023-04-15T12:08:55.917Z,101729.13
2023-04-15T12:11:38.020Z,101721.63
2023-04-15T12:14:29.350Z,101731.59
2023-04-15T12:17:00.168Z,101734.78
2023-04-15T12:19:33.089Z,101729.66
2023-04-15T12:22:05.708Z,101734.63
2023-04-15T12:24:33.297Z,101740.13
2023-04-15T12:27:08.956Z,101744.56
2023-04-15T12:29:38.991Z,101741.25
2023-04-15T12:32:13.693Z,101765.34
2023-04-15T12:34:45.684Z,101774.00
2023-04-15T12:37:16.424Z,101775.94
2023-04-15T12:39:46.031Z,101763.56
2023-04-15T12:42:13.525Z,101758.09
2023-04-15T12:44:40.555Z,101771.56
2023-04-15T12:47:08.346Z,101772.66
2023-04-15T12:49:35.439Z,101784.09
2023-04-15T12:52:03.000Z,101790.84
2023-04-15T12:54:30.625Z,101778.69
2023-04-15T12:56:57.844Z,101779.50
2023-04-15T12:59:24.907Z,101779.16
2023-04-15T13:01:52.601Z,101773.69
2023-04-15T13:04:20.768Z,101783.00
2023-04-15T13:06:47.769Z,101791.81
2023-04-15T13:09:15.808Z,101794.94
2023-04-15T13:11:42.693Z,101799.31
2023-04-15T13:14:11.673Z,101787.44
2023-04-15T13:16:39.011Z,101812.19
2023-04-15T13:19:05.917Z,101812.25
2023-04-15T13:21:35.781Z,101807.03
2023-04-15T13:24:04.531Z,101819.94
2023-04-15T13:26:33.286Z,101821.84
2023-04-15T13:29:01.275Z,101833.09
2023-04-15T13:31:28.396Z,101830.75
2023-04-15T13:33:55.381Z,101827.88
2023-04-15T13:36:22.341Z,101835.19
2023-04-15T13:38:51.196Z,101835.25
2023-04-15T13:41:20.394Z,101853.09
2023-04-15T13:43:47.710Z,101846.44
2023-04-15T13:46:15.385Z,101862.84
2023-04-15T13:48:42.994Z,101864.81
2023-04-15T13:51:10.111Z,101865.03
2023-04-15T13:53:38.931Z,101868.59
2023-04-15T13:56:10.080Z,101883.31
2023-04-15T13:58:37.826Z,101872.59
2023-04-15T14:01:06.302Z,101879.91
2023-04-15T14:03:35.250Z,101884.41
2023-04-15T14:06:02.269Z,101887.34
2023-04-15T14:08:30.081Z,101890.34
2023-04-15T14:10:57.724Z,101887.59
2023-04-15T14:13:24.835Z,101905.81
2023-04-15T14:15:51.691Z,101903.09
2023-04-15T14:18:18.687Z,101896.47
2023-04-15T14:20:46.202Z,101906.72
2023-04-15T14:23:13.052Z,101904.75
2023-04-15T14:25:40.001Z,101896.97
2023-04-15T14:28:06.645Z,101911.03
2023-04-15T14:30:33.854Z,101905.16
2023-04-15T14:33:01.101Z,101915.88
2023-04-15T14:35:28.048Z,101902.16
2023-04-15T14:37:55.770Z,101905.31
2023-04-15T14:40:23.189Z,101896.13
2023-04-15T14:42:50.005Z,101919.72
2023-04-15T14:45:18.083Z,101917.84
2023-04-15T14:47:45.717Z,101918.03
2023-04-15T14:50:13.286Z,101920.81
2023-04-15T14:52:40.630Z,101916.22
2023-04-15T14:55:12.501Z,101931.63
2023-04-15T14:57:41.689Z,101935.78
2023-04-15T15:00:10.768Z,101948.25
2023-04-15T15:02:40.444Z,101936.25
2023-04-15T15:05:09.951Z,101941.97
2023-04-15T15:07:38.435Z,101955.34
2023-04-15T15:10:06.448Z,101951.22
2023-04-15T15:12:34.356Z,101952.00
2023-04-15T15:15:06.843Z,101955.00
2023-04-15T15:17:40.356Z,101961.06
2023-04-15T15:20:07.936Z,101969.09
2023-04-15T15:22:35.376Z,101973.84
2023-04-15T15:25:02.765Z,101976.00
2023-04-15T15:27:30.382Z,101980.41
2023-04-15T15:29:59.618Z,101983.94
2023-04-15T15:32:27.061Z,101970.28
2023-04-15T15:34:54.469Z,101978.81
2023-04-15T15:37:21.738Z,101981.69
2023-04-15T15:39:51.022Z,101993.47
2023-04-15T15:42:19.239Z,101980.47
2023-04-15T15:44:46.472Z,101985.00
2023-04-15T15:47:13.180Z,101979.88
2023-04-15T15:49:40.096Z,101994.34
2023-04-15T15:52:06.926Z,101996.56
2023-04-15T15:54:34.861Z,102003.66
2023-04-15T15:57:01.782Z,102010.16
2023-04-15T15:59:28.708Z,102019.84
2023-04-15T16:01:55.738Z,102019.91
2023-04-15T16:04:23.457Z,102024.47
2023-04-15T16:06:50.648Z,102037.09
2023-04-15T16:09:17.940Z,102038.25
2023-04-15T16:11:45.761Z,102035.91
2023-04-15T16:14:13.982Z,102061.19
2023-04-15T16:16:40.862Z,102053.03
2023-04-15T16:19:07.766Z,102041.66
2023-04-15T16:21:34.995Z,102052.63
2023-04-15T16:24:02.244Z,102044.06
2023-04-15T16:26:29.062Z,102050.88
2023-04-15T16:28:55.762Z,102057.78
2023-04-15T16:31:22.928Z,102067.06
2023-04-15T16:33:49.629Z,102062.91
2023-04-15T16:36:16.519Z,102062.34
2023-04-15T16:38:45.417Z,102069.94
2023-04-15T16:41:12.216Z,102067.19
2023-04-15T16:43:38.986Z,102077.31
2023-04-15T16:46:05.998Z,102079.44
2023-04-15T16:48:33.290Z,102078.16
2023-04-15T16:51:00.149Z,102085.50
2023-04-15T16:53:26.929Z,102084.53
2023-04-15T16:55:53.674Z,102087.47
2023-04-15T16:58:20.472Z,102093.38
2023-04-15T17:00:47.140Z,102099.09
2023-04-15T17:03:14.070Z,102092.38
2023-04-15T17:05:42.631Z,102094.81
2023-04-15T17:08:10.066Z,102091.25
2023-04-15T17:10:37.542Z,102097.28
2023-04-15T17:13:05.143Z,102112.84
2023-04-15T17:15:32.422Z,102111.72
2023-04-15T17:17:59.983Z,102110.53
2023-04-15T17:20:27.277Z,102112.00
2023-04-15T17:22:54.880Z,102109.56
2023-04-15T17:25:23.161Z,102116.78
2023-04-15T17:27:50.740Z,102112.84
2023-04-15T17:30:18.139Z,102119.53
2023-04-15T17:32:45.651Z,102130.81
2023-04-15T17:35:12.935Z,102139.81
2023-04-15T17:37:40.499Z,102129.81
2023-04-15T17:40:09.044Z,102130.66
2023-04-15T17:42:36.529Z,102133.69
2023-04-15T17:45:04.045Z,102128.94
2023-04-15T17:47:31.444Z,102128.94
2023-04-15T17:49:58.864Z,102141.19
2023-04-15T17:52:26.413Z,102136.78
2023-04-15T17:54:53.947Z,102134.63
2023-04-15T17:57:20.869Z,102138.91
2023-04-15T17:59:48.727Z,102143.31
2023-04-15T18:02:16.209Z,102151.13
2023-04-15T18:04:43.813Z,102153.06
2023-04-15T18:07:11.002Z,102150.00
2023-04-15T18:09:38.302Z,102159.59
2023-04-15T18:12:08.185Z,102157.50
2023-04-15T18:14:36.363Z,102165.50
2023-04-15T18:17:03.578Z,102172.09
2023-04-15T18:19:32.299Z,102168.97
2023-04-15T18:22:02.280Z,102174.38
2023-04-15T18:24:30.580Z,102169.59
2023-04-15T18:26:57.759Z,102166.03
2023-04-15T18:29:25.842Z,102173.53
2023-04-15T18:31:53.290Z,102176.50
2023-04-15T18:34:20.850Z,102179.66
2023-04-15T18:36:48.180Z,102180.69
2023-04-15T18:39:17.052Z,102194.09
2023-04-15T18:41:44.444Z,102195.22
2023-04-15T18:44:11.855Z,102197.66
2023-04-15T18:46:39.386Z,102210.97
2023-04-15T18:49:06.956Z,102215.94
2023-04-15T18:51:34.110Z,102205.13
2023-04-15T18:54:01.740Z,102214.09
2023-04-15T18:56:29.314Z,102215.25
2023-04-15T18:59:27.792Z,102219.34
2023-04-15T19:01:44.056Z,102223.47
2023-04-15T19:04:12.153Z,102217.56
2023-04-15T19:06:39.646Z,102220.09
2023-04-15T19:09:07.354Z,102222.03
2023-04-15T19:11:34.884Z,102227.28
2023-04-15T19:14:02.651Z,102226.47
2023-04-15T19:16:30.052Z,102238.19
2023-04-15T19:18:57.334Z,102229.78
2023-04-15T19:21:24.987Z,102230.41
2023-04-15T19:23:52.365Z,102237.09
2023-04-15T19:26:19.364Z,102238.44
2023-04-15T19:28:46.680Z,102233.84
2023-04-15T19:31:14.064Z,102245.22
2023-04-15T19:33:41.403Z,102245.03
2023-04-15T19:36:08.693Z,102244.09
2023-04-15T19:38:36.328Z,102252.00
2023-04-15T19:41:03.945Z,102247.50
2023-04-15T19:43:32.751Z,102250.78
2023-04-15T19:46:00.487Z,102250.97
2023-04-15T19:48:27.948Z,102249.34
2023-04-15T19:50:55.281Z,102260.44
2023-04-15T19:53:22.562Z,102256.53
2023-04-15T19:55:49.904Z,102264.94
2023-04-15T19:58:17.144Z,102263.81
2023-04-15T20:00:44.623Z,102264.41
2023-04-15T20:03:12.124Z,102257.97
2023-04-15T20:05:40.025Z,102259.06
2023-04-15T20:08:07.486Z,102268.53
2023-04-15T20:10:35.685Z,102259.06
2023-04-15T20:13:02.964Z,102262.56
2023-04-15T20:15:30.529Z,102264.00
2023-04-15T20:17:57.946Z,102261.22
2023-04-15T20:20:25.202Z,102255.97
2023-04-15T20:22:53.487Z,102258.13
2023-04-15T20:25:20.733Z,102248.97
2023-04-15T20:27:48.080Z,102259.47
2023-04-15T20:30:15.482Z,102258.34
2023-04-15T20:32:43.099Z,102250.50
2023-04-15T20:35:10.755Z,102251.63
2023-04-15T20:37:38.843Z,102257.19
2023-04-15T20:40:07.166Z,102261.94
2023-04-15T20:42:34.833Z,102260.66
2023-04-15T20:45:02.416Z,102259.22
2023-04-15T20:47:30.694Z,102257.25
2023-04-15T20:49:58.083Z,102266.31
2023-04-15T20:52:25.850Z,102256.84
2023-04-15T20:54:53.027Z,102254.88
2023-04-15T20:57:20.807Z,102264.03
2023-04-15T20:59:47.957Z,102270.41
2023-04-15T21:02:15.511Z,102267.97
2023-04-15T21:04:42.822Z,102262.81
2023-04-15T21:07:10.788Z,102267.03
2023-04-15T21:09:41.584Z,102270.03
2023-04-15T21:12:10.166Z,102260.88
2023-04-15T21:14:37.926Z,102259.41
2023-04-15T21:17:10.794Z,102272.69
2023-04-15T21:19:38.697Z,102271.84
2023-04-15T21:22:06.427Z,102283.72
2023-04-15T21:24:34.090Z,102274.75
2023-04-15T21:27:02.179Z,102282.47
2023-04-15T21:29:29.805Z,102283.47
2023-04-15T21:31:57.328Z,102280.69
2023-04-15T21:34:24.732Z,102291.19
2023-04-15T21:36:51.719Z,102286.25
2023-04-15T21:39:18.940Z,102275.97
2023-04-15T21:41:46.732Z,102288.41
2023-04-15T21:44:14.979Z,102293.13
2023-04-15T21:46:45.965Z,102291.19
2023-04-15T21:49:14.149Z,102294.66
2023-04-15T21:51:41.408Z,102294.66
2023-04-15T21:54:08.662Z,102295.50
2023-04-15T21:56:37.051Z,102310.19
2023-04-15T21:59:04.600Z,102304.31
2023-04-15T22:01:32.472Z,102308.75
2023-04-15T22:03:59.911Z,102307.81
2023-04-15T22:06:27.607Z,102305.31
2023-04-15T22:08:57.772Z,102310.09
2023-04-15T22:11:30.380Z,102304.81
2023-04-15T22:13:58.804Z,102314.59
2023-04-15T22:16:26.995Z,102312.44
2023-04-15T22:18:55.405Z,102310.00
2023-04-15T22:21:22.897Z,102320.16
2023-04-15T22:23:51.204Z,102322.13
2023-04-15T22:26:18.469Z,102323.78
2023-04-15T22:28:45.977Z,102318.72
2023-04-15T22:31:13.885Z,102319.88
2023-04-15T22:33:41.286Z,102318.72
2023-04-15T22:36:08.517Z,102316.06
2023-04-15T22:38:36.096Z,102318.34
2023-04-15T22:41:03.266Z,102313.84
2023-04-15T22:43:30.835Z,102323.41
2023-04-15T22:45:58.216Z,102323.53
2023-04-15T22:48:25.568Z,102323.53
2023-04-15T22:50:53.235Z,102328.69
2023-04-15T22:53:20.566Z,102336.00
2023-04-15T22:55:48.745Z,102329.59
2023-04-15T22:58:17.298Z,102341.34
2023-04-15T23:00:45.220Z,102335.59
2023-04-15T23:03:12.662Z,102346.19
2023-04-15T23:05:41.447Z,102351.94
2023-04-15T23:08:08.862Z,102353.09
2023-04-15T23:10:36.079Z,102350.09
2023-04-15T23:13:03.300Z,102358.75
2023-04-15T23:15:30.873Z,102360.19
2023-04-15T23:17:58.160Z,102364.19
2023-04-15T23:20:25.721Z,102372.28
2023-04-15T23:22:52.921Z,102370.78
2023-04-15T23:25:22.516Z,102362.97
2023-04-15T23:27:49.977Z,102375.50
2023-04-15T23:30:17.343Z,102376.72
2023-04-15T23:32:44.991Z,102371.16
2023-04-15T23:35:12.280Z,102374.44
2023-04-15T23:37:39.483Z,102369.72
2023-04-15T23:40:07.486Z,102375.28
2023-04-15T23:42:34.580Z,102377.53
2023-04-15T23:45:02.106Z,102377.53
2023-04-15T23:47:29.360Z,102380.00
2023-04-15T23:49:56.784Z,102382.03
2023-04-15T23:52:24.301Z,102375.47
2023-04-15T23:54:51.491Z,102377.66
2023-04-15T23:57:19.043Z,102382.03
2023-04-15T23:59:46.551Z,102384.72
